sensor_id;sensor_type;location;lat;lon;timestamp;P1;durP1;ratioP1;P2;durP2;ratioP2
6388;SDS011;3227;42.654;23.360;2024-02-04T00:02:31;5.70;;;3.03;;
6388;SDS011;3227;42.654;23.360;2024-02-04T00:04:59;4.97;;;2.90;;
6388;SDS011;3227;42.654;23.360;2024-02-04T00:07:26;6.53;;;3.63;;
6388;SDS011;3227;42.654;23.360;2024-02-04T00:09:53;5.77;;;3.20;;
6388;SDS011;3227;42.654;23.360;2024-02-04T00:12:20;7.73;;;3.13;;
6388;SDS011;3227;42.654;23.360;2024-02-04T00:14:46;9.23;;;3.33;;
6388;SDS011;3227;42.654;23.360;2024-02-04T00:17:14;8.03;;;3.60;;
6388;SDS011;3227;42.654;23.360;2024-02-04T00:19:41;7.70;;;3.73;;
6388;SDS011;3227;42.654;23.360;2024-02-04T00:22:10;5.80;;;3.20;;
6388;SDS011;3227;42.654;23.360;2024-02-04T00:24:36;6.20;;;3.57;;
6388;SDS011;3227;42.654;23.360;2024-02-04T00:27:03;8.57;;;3.70;;
6388;SDS011;3227;42.654;23.360;2024-02-04T00:29:30;7.37;;;4.00;;
6388;SDS011;3227;42.654;23.360;2024-02-04T00:31:57;7.57;;;3.33;;
6388;SDS011;3227;42.654;23.360;2024-02-04T00:34:23;7.20;;;3.43;;
6388;SDS011;3227;42.654;23.360;2024-02-04T00:36:50;6.87;;;3.37;;
6388;SDS011;3227;42.654;23.360;2024-02-04T00:39:18;5.63;;;3.27;;
6388;SDS011;3227;42.654;23.360;2024-02-04T00:41:44;7.30;;;3.57;;
6388;SDS011;3227;42.654;23.360;2024-02-04T00:44:11;6.47;;;3.63;;
6388;SDS011;3227;42.654;23.360;2024-02-04T00:46:38;6.53;;;3.60;;
6388;SDS011;3227;42.654;23.360;2024-02-04T00:49:05;5.67;;;3.13;;
6388;SDS011;3227;42.654;23.360;2024-02-04T00:51:30;7.37;;;3.57;;
6388;SDS011;3227;42.654;23.360;2024-02-04T00:53:58;5.50;;;3.30;;
6388;SDS011;3227;42.654;23.360;2024-02-04T00:56:26;5.23;;;3.20;;
6388;SDS011;3227;42.654;23.360;2024-02-04T00:58:52;5.60;;;3.33;;
6388;SDS011;3227;42.654;23.360;2024-02-04T01:01:19;6.43;;;3.47;;
6388;SDS011;3227;42.654;23.360;2024-02-04T01:03:46;6.80;;;3.57;;
6388;SDS011;3227;42.654;23.360;2024-02-04T01:06:13;6.43;;;3.33;;
6388;SDS011;3227;42.654;23.360;2024-02-04T01:08:40;5.50;;;3.03;;
6388;SDS011;3227;42.654;23.360;2024-02-04T01:11:07;6.23;;;3.10;;
6388;SDS011;3227;42.654;23.360;2024-02-04T01:13:35;6.50;;;3.13;;
6388;SDS011;3227;42.654;23.360;2024-02-04T01:16:02;6.53;;;3.23;;
6388;SDS011;3227;42.654;23.360;2024-02-04T01:18:29;6.43;;;3.40;;
6388;SDS011;3227;42.654;23.360;2024-02-04T01:20:56;5.97;;;2.93;;
6388;SDS011;3227;42.654;23.360;2024-02-04T01:23:23;4.83;;;2.83;;
6388;SDS011;3227;42.654;23.360;2024-02-04T01:25:49;5.87;;;3.23;;
6388;SDS011;3227;42.654;23.360;2024-02-04T01:28:16;5.73;;;3.13;;
6388;SDS011;3227;42.654;23.360;2024-02-04T01:30:44;6.03;;;3.07;;
6388;SDS011;3227;42.654;23.360;2024-02-04T01:33:10;5.93;;;3.20;;
6388;SDS011;3227;42.654;23.360;2024-02-04T01:35:37;6.33;;;3.33;;
6388;SDS011;3227;42.654;23.360;2024-02-04T01:38:04;6.47;;;3.30;;
6388;SDS011;3227;42.654;23.360;2024-02-04T01:40:31;5.17;;;2.70;;
6388;SDS011;3227;42.654;23.360;2024-02-04T01:42:58;5.40;;;3.00;;
6388;SDS011;3227;42.654;23.360;2024-02-04T01:45:24;6.53;;;3.20;;
6388;SDS011;3227;42.654;23.360;2024-02-04T01:47:53;5.33;;;3.00;;
6388;SDS011;3227;42.654;23.360;2024-02-04T01:50:20;5.83;;;3.10;;
6388;SDS011;3227;42.654;23.360;2024-02-04T01:52:48;4.17;;;2.50;;
6388;SDS011;3227;42.654;23.360;2024-02-04T01:55:16;5.73;;;2.80;;
6388;SDS011;3227;42.654;23.360;2024-02-04T01:57:44;5.73;;;2.83;;
6388;SDS011;3227;42.654;23.360;2024-02-04T02:00:11;6.73;;;3.13;;
6388;SDS011;3227;42.654;23.360;2024-02-04T02:02:39;6.23;;;3.10;;
6388;SDS011;3227;42.654;23.360;2024-02-04T02:05:08;6.17;;;3.07;;
6388;SDS011;3227;42.654;23.360;2024-02-04T02:07:35;5.20;;;3.10;;
6388;SDS011;3227;42.654;23.360;2024-02-04T02:10:02;5.87;;;2.87;;
6388;SDS011;3227;42.654;23.360;2024-02-04T02:12:33;5.13;;;2.73;;
6388;SDS011;3227;42.654;23.360;2024-02-04T02:15:06;6.20;;;3.07;;
6388;SDS011;3227;42.654;23.360;2024-02-04T02:17:38;4.17;;;2.77;;
6388;SDS011;3227;42.654;23.360;2024-02-04T02:20:16;5.23;;;2.97;;
6388;SDS011;3227;42.654;23.360;2024-02-04T02:22:48;4.60;;;2.60;;
6388;SDS011;3227;42.654;23.360;2024-02-04T02:25:18;5.20;;;2.80;;
6388;SDS011;3227;42.654;23.360;2024-02-04T02:27:47;4.30;;;2.70;;
6388;SDS011;3227;42.654;23.360;2024-02-04T02:30:14;5.47;;;2.80;;
6388;SDS011;3227;42.654;23.360;2024-02-04T02:32:42;5.27;;;2.80;;
6388;SDS011;3227;42.654;23.360;2024-02-04T02:35:09;5.00;;;2.83;;
6388;SDS011;3227;42.654;23.360;2024-02-04T02:37:39;5.90;;;2.40;;
6388;SDS011;3227;42.654;23.360;2024-02-04T02:40:10;5.63;;;2.90;;
6388;SDS011;3227;42.654;23.360;2024-02-04T02:42:44;6.47;;;2.90;;
6388;SDS011;3227;42.654;23.360;2024-02-04T02:45:13;6.10;;;3.00;;
6388;SDS011;3227;42.654;23.360;2024-02-04T02:50:27;5.43;;;2.77;;
6388;SDS011;3227;42.654;23.360;2024-02-04T02:52:54;4.80;;;2.60;;
6388;SDS011;3227;42.654;23.360;2024-02-04T02:55:21;7.83;;;2.80;;
6388;SDS011;3227;42.654;23.360;2024-02-04T02:57:49;5.70;;;2.97;;
6388;SDS011;3227;42.654;23.360;2024-02-04T03:00:16;5.07;;;2.60;;
6388;SDS011;3227;42.654;23.360;2024-02-04T03:02:43;4.57;;;2.70;;
6388;SDS011;3227;42.654;23.360;2024-02-04T03:05:10;7.17;;;3.17;;
6388;SDS011;3227;42.654;23.360;2024-02-04T03:07:37;6.40;;;3.00;;
6388;SDS011;3227;42.654;23.360;2024-02-04T03:10:05;6.40;;;2.67;;
6388;SDS011;3227;42.654;23.360;2024-02-04T03:12:32;5.23;;;2.80;;
6388;SDS011;3227;42.654;23.360;2024-02-04T03:15:00;7.33;;;2.63;;
6388;SDS011;3227;42.654;23.360;2024-02-04T03:17:27;5.37;;;2.53;;
6388;SDS011;3227;42.654;23.360;2024-02-04T03:19:54;5.03;;;2.80;;
6388;SDS011;3227;42.654;23.360;2024-02-04T03:22:21;6.30;;;2.90;;
6388;SDS011;3227;42.654;23.360;2024-02-04T03:24:48;4.13;;;2.40;;
6388;SDS011;3227;42.654;23.360;2024-02-04T03:27:14;5.20;;;2.57;;
6388;SDS011;3227;42.654;23.360;2024-02-04T03:29:42;5.77;;;2.57;;
6388;SDS011;3227;42.654;23.360;2024-02-04T03:32:11;5.50;;;2.73;;
6388;SDS011;3227;42.654;23.360;2024-02-04T03:34:38;6.87;;;2.83;;
6388;SDS011;3227;42.654;23.360;2024-02-04T03:37:07;5.67;;;2.70;;
6388;SDS011;3227;42.654;23.360;2024-02-04T03:39:34;4.33;;;2.20;;
6388;SDS011;3227;42.654;23.360;2024-02-04T03:42:00;5.33;;;2.63;;
6388;SDS011;3227;42.654;23.360;2024-02-04T03:44:27;4.43;;;2.37;;
6388;SDS011;3227;42.654;23.360;2024-02-04T03:46:54;3.60;;;2.30;;
6388;SDS011;3227;42.654;23.360;2024-02-04T03:49:22;6.03;;;3.03;;
6388;SDS011;3227;42.654;23.360;2024-02-04T03:51:49;3.20;;;2.10;;
6388;SDS011;3227;42.654;23.360;2024-02-04T03:54:15;3.90;;;2.27;;
6388;SDS011;3227;42.654;23.360;2024-02-04T03:56:44;4.97;;;2.60;;
6388;SDS011;3227;42.654;23.360;2024-02-04T03:59:11;4.90;;;2.40;;
6388;SDS011;3227;42.654;23.360;2024-02-04T04:01:37;3.57;;;2.33;;
6388;SDS011;3227;42.654;23.360;2024-02-04T04:04:04;3.50;;;2.30;;
6388;SDS011;3227;42.654;23.360;2024-02-04T04:06:32;3.83;;;2.47;;
6388;SDS011;3227;42.654;23.360;2024-02-04T04:08:59;3.90;;;2.30;;
6388;SDS011;3227;42.654;23.360;2024-02-04T04:11:26;3.10;;;2.20;;
6388;SDS011;3227;42.654;23.360;2024-02-04T04:13:53;5.50;;;2.53;;
6388;SDS011;3227;42.654;23.360;2024-02-04T04:16:20;4.23;;;2.40;;
6388;SDS011;3227;42.654;23.360;2024-02-04T04:18:48;4.50;;;2.40;;
6388;SDS011;3227;42.654;23.360;2024-02-04T04:21:15;4.47;;;2.60;;
6388;SDS011;3227;42.654;23.360;2024-02-04T04:23:43;4.30;;;2.47;;
6388;SDS011;3227;42.654;23.360;2024-02-04T04:26:10;4.37;;;2.60;;
6388;SDS011;3227;42.654;23.360;2024-02-04T04:28:37;4.63;;;2.77;;
6388;SDS011;3227;42.654;23.360;2024-02-04T04:31:04;5.03;;;2.60;;
6388;SDS011;3227;42.654;23.360;2024-02-04T04:33:31;5.87;;;2.70;;
6388;SDS011;3227;42.654;23.360;2024-02-04T04:35:57;4.83;;;2.50;;
6388;SDS011;3227;42.654;23.360;2024-02-04T04:38:24;4.30;;;2.60;;
6388;SDS011;3227;42.654;23.360;2024-02-04T04:40:52;4.30;;;2.47;;
6388;SDS011;3227;42.654;23.360;2024-02-04T04:43:19;4.10;;;2.47;;
6388;SDS011;3227;42.654;23.360;2024-02-04T04:45:46;4.77;;;2.20;;
6388;SDS011;3227;42.654;23.360;2024-02-04T04:48:13;4.83;;;2.43;;
6388;SDS011;3227;42.654;23.360;2024-02-04T04:50:39;4.57;;;2.30;;
6388;SDS011;3227;42.654;23.360;2024-02-04T04:53:06;3.57;;;2.27;;
6388;SDS011;3227;42.654;23.360;2024-02-04T04:55:33;4.93;;;2.50;;
6388;SDS011;3227;42.654;23.360;2024-02-04T04:58:01;4.20;;;2.50;;
6388;SDS011;3227;42.654;23.360;2024-02-04T05:00:28;3.90;;;2.30;;
6388;SDS011;3227;42.654;23.360;2024-02-04T05:02:55;3.87;;;2.40;;
6388;SDS011;3227;42.654;23.360;2024-02-04T05:05:21;3.50;;;2.03;;
6388;SDS011;3227;42.654;23.360;2024-02-04T05:07:48;4.03;;;2.40;;
6388;SDS011;3227;42.654;23.360;2024-02-04T05:10:15;5.17;;;2.50;;
6388;SDS011;3227;42.654;23.360;2024-02-04T05:12:42;4.60;;;2.40;;
6388;SDS011;3227;42.654;23.360;2024-02-04T05:15:10;5.00;;;2.40;;
6388;SDS011;3227;42.654;23.360;2024-02-04T05:17:37;5.83;;;2.60;;
6388;SDS011;3227;42.654;23.360;2024-02-04T05:20:04;4.53;;;2.50;;
6388;SDS011;3227;42.654;23.360;2024-02-04T05:22:32;5.03;;;2.87;;
6388;SDS011;3227;42.654;23.360;2024-02-04T05:24:59;5.03;;;2.50;;
6388;SDS011;3227;42.654;23.360;2024-02-04T05:27:26;5.87;;;2.80;;
6388;SDS011;3227;42.654;23.360;2024-02-04T05:29:53;4.80;;;2.57;;
6388;SDS011;3227;42.654;23.360;2024-02-04T05:32:21;3.80;;;2.33;;
6388;SDS011;3227;42.654;23.360;2024-02-04T05:34:48;5.40;;;2.67;;
6388;SDS011;3227;42.654;23.360;2024-02-04T05:37:15;3.83;;;2.37;;
6388;SDS011;3227;42.654;23.360;2024-02-04T05:39:41;3.93;;;2.50;;
6388;SDS011;3227;42.654;23.360;2024-02-04T05:42:08;5.87;;;2.60;;
6388;SDS011;3227;42.654;23.360;2024-02-04T05:44:35;5.37;;;2.90;;
6388;SDS011;3227;42.654;23.360;2024-02-04T05:47:02;4.43;;;2.40;;
6388;SDS011;3227;42.654;23.360;2024-02-04T05:49:30;4.07;;;2.40;;
6388;SDS011;3227;42.654;23.360;2024-02-04T05:51:57;4.13;;;2.60;;
6388;SDS011;3227;42.654;23.360;2024-02-04T05:54:23;4.27;;;2.40;;
6388;SDS011;3227;42.654;23.360;2024-02-04T05:56:50;4.67;;;2.50;;
6388;SDS011;3227;42.654;23.360;2024-02-04T05:59:17;4.53;;;2.60;;
6388;SDS011;3227;42.654;23.360;2024-02-04T06:01:46;4.53;;;2.60;;
6388;SDS011;3227;42.654;23.360;2024-02-04T06:04:12;5.53;;;2.80;;
6388;SDS011;3227;42.654;23.360;2024-02-04T06:06:41;4.90;;;2.60;;
6388;SDS011;3227;42.654;23.360;2024-02-04T06:09:07;4.87;;;2.50;;
6388;SDS011;3227;42.654;23.360;2024-02-04T06:11:35;4.67;;;2.60;;
6388;SDS011;3227;42.654;23.360;2024-02-04T06:14:02;5.27;;;2.90;;
6388;SDS011;3227;42.654;23.360;2024-02-04T06:16:29;5.47;;;2.77;;
6388;SDS011;3227;42.654;23.360;2024-02-04T06:18:55;5.63;;;2.77;;
6388;SDS011;3227;42.654;23.360;2024-02-04T06:21:23;4.93;;;2.50;;
6388;SDS011;3227;42.654;23.360;2024-02-04T06:23:51;4.73;;;2.80;;
6388;SDS011;3227;42.654;23.360;2024-02-04T06:26:18;4.67;;;2.80;;
6388;SDS011;3227;42.654;23.360;2024-02-04T06:28:45;4.90;;;2.90;;
6388;SDS011;3227;42.654;23.360;2024-02-04T06:31:13;7.67;;;3.00;;
6388;SDS011;3227;42.654;23.360;2024-02-04T06:33:41;6.53;;;3.17;;
6388;SDS011;3227;42.654;23.360;2024-02-04T06:36:08;7.40;;;3.40;;
6388;SDS011;3227;42.654;23.360;2024-02-04T06:38:35;5.70;;;2.70;;
6388;SDS011;3227;42.654;23.360;2024-02-04T06:41:04;4.27;;;2.60;;
6388;SDS011;3227;42.654;23.360;2024-02-04T06:43:31;5.20;;;2.70;;
6388;SDS011;3227;42.654;23.360;2024-02-04T06:45:57;3.97;;;2.40;;
6388;SDS011;3227;42.654;23.360;2024-02-04T06:48:24;5.33;;;3.03;;
6388;SDS011;3227;42.654;23.360;2024-02-04T06:50:51;6.27;;;3.10;;
6388;SDS011;3227;42.654;23.360;2024-02-04T06:53:19;4.57;;;2.67;;
6388;SDS011;3227;42.654;23.360;2024-02-04T06:55:47;5.70;;;3.07;;
6388;SDS011;3227;42.654;23.360;2024-02-04T06:58:15;5.57;;;2.73;;
6388;SDS011;3227;42.654;23.360;2024-02-04T07:00:42;6.90;;;3.30;;
6388;SDS011;3227;42.654;23.360;2024-02-04T07:03:08;5.30;;;2.90;;
6388;SDS011;3227;42.654;23.360;2024-02-04T07:05:36;4.83;;;2.63;;
6388;SDS011;3227;42.654;23.360;2024-02-04T07:08:03;6.23;;;2.90;;
6388;SDS011;3227;42.654;23.360;2024-02-04T07:10:30;4.03;;;2.33;;
6388;SDS011;3227;42.654;23.360;2024-02-04T07:12:57;6.07;;;2.80;;
6388;SDS011;3227;42.654;23.360;2024-02-04T07:15:26;4.63;;;2.57;;
6388;SDS011;3227;42.654;23.360;2024-02-04T07:17:52;5.00;;;2.63;;
6388;SDS011;3227;42.654;23.360;2024-02-04T07:20:19;4.83;;;2.73;;
6388;SDS011;3227;42.654;23.360;2024-02-04T07:22:47;5.30;;;2.90;;
6388;SDS011;3227;42.654;23.360;2024-02-04T07:25:14;5.20;;;2.87;;
6388;SDS011;3227;42.654;23.360;2024-02-04T07:27:41;5.63;;;2.60;;
6388;SDS011;3227;42.654;23.360;2024-02-04T07:30:08;4.87;;;2.57;;
6388;SDS011;3227;42.654;23.360;2024-02-04T07:32:36;4.43;;;2.37;;
6388;SDS011;3227;42.654;23.360;2024-02-04T07:35:03;8.20;;;2.70;;
6388;SDS011;3227;42.654;23.360;2024-02-04T07:37:31;4.63;;;2.70;;
6388;SDS011;3227;42.654;23.360;2024-02-04T07:39:58;5.10;;;2.70;;
6388;SDS011;3227;42.654;23.360;2024-02-04T07:42:26;5.90;;;2.80;;
6388;SDS011;3227;42.654;23.360;2024-02-04T07:44:53;6.37;;;2.77;;
6388;SDS011;3227;42.654;23.360;2024-02-04T07:47:19;4.83;;;2.60;;
6388;SDS011;3227;42.654;23.360;2024-02-04T07:49:48;3.53;;;2.23;;
6388;SDS011;3227;42.654;23.360;2024-02-04T07:52:15;5.43;;;2.60;;
6388;SDS011;3227;42.654;23.360;2024-02-04T07:54:42;4.60;;;2.67;;
6388;SDS011;3227;42.654;23.360;2024-02-04T07:57:09;4.90;;;2.50;;
6388;SDS011;3227;42.654;23.360;2024-02-04T07:59:37;4.67;;;2.40;;
6388;SDS011;3227;42.654;23.360;2024-02-04T08:02:03;5.13;;;2.50;;
6388;SDS011;3227;42.654;23.360;2024-02-04T08:04:32;5.10;;;2.60;;
6388;SDS011;3227;42.654;23.360;2024-02-04T08:07:00;3.33;;;2.20;;
6388;SDS011;3227;42.654;23.360;2024-02-04T08:09:27;4.63;;;2.53;;
6388;SDS011;3227;42.654;23.360;2024-02-04T08:11:53;5.10;;;2.40;;
6388;SDS011;3227;42.654;23.360;2024-02-04T08:14:20;4.57;;;2.47;;
6388;SDS011;3227;42.654;23.360;2024-02-04T08:16:47;6.73;;;2.83;;
6388;SDS011;3227;42.654;23.360;2024-02-04T08:19:14;4.63;;;2.50;;
6388;SDS011;3227;42.654;23.360;2024-02-04T08:21:41;6.90;;;2.73;;
6388;SDS011;3227;42.654;23.360;2024-02-04T08:24:09;5.20;;;2.50;;
6388;SDS011;3227;42.654;23.360;2024-02-04T08:26:36;4.80;;;2.57;;
6388;SDS011;3227;42.654;23.360;2024-02-04T08:29:03;6.63;;;2.90;;
6388;SDS011;3227;42.654;23.360;2024-02-04T08:31:30;5.33;;;2.63;;
6388;SDS011;3227;42.654;23.360;2024-02-04T08:33:58;5.00;;;2.50;;
6388;SDS011;3227;42.654;23.360;2024-02-04T08:36:25;5.87;;;2.90;;
6388;SDS011;3227;42.654;23.360;2024-02-04T08:38:52;5.00;;;2.63;;
6388;SDS011;3227;42.654;23.360;2024-02-04T08:41:20;5.13;;;2.67;;
6388;SDS011;3227;42.654;23.360;2024-02-04T08:43:48;5.70;;;2.50;;
6388;SDS011;3227;42.654;23.360;2024-02-04T08:46:15;4.13;;;2.20;;
6388;SDS011;3227;42.654;23.360;2024-02-04T08:48:42;4.77;;;2.50;;
6388;SDS011;3227;42.654;23.360;2024-02-04T08:51:10;3.80;;;2.10;;
6388;SDS011;3227;42.654;23.360;2024-02-04T08:53:38;5.17;;;2.33;;
6388;SDS011;3227;42.654;23.360;2024-02-04T08:56:06;3.77;;;2.20;;
6388;SDS011;3227;42.654;23.360;2024-02-04T08:58:34;4.50;;;2.43;;
6388;SDS011;3227;42.654;23.360;2024-02-04T09:01:02;6.93;;;2.20;;
6388;SDS011;3227;42.654;23.360;2024-02-04T09:03:29;4.25;;;2.38;;
6388;SDS011;3227;42.654;23.360;2024-02-04T09:05:59;3.80;;;2.10;;
6388;SDS011;3227;42.654;23.360;2024-02-04T09:08:25;3.93;;;2.00;;
6388;SDS011;3227;42.654;23.360;2024-02-04T09:10:51;4.30;;;2.28;;
6388;SDS011;3227;42.654;23.360;2024-02-04T09:13:18;3.73;;;2.13;;
6388;SDS011;3227;42.654;23.360;2024-02-04T09:15:46;4.27;;;2.17;;
6388;SDS011;3227;42.654;23.360;2024-02-04T09:18:13;4.63;;;2.20;;
6388;SDS011;3227;42.654;23.360;2024-02-04T09:20:40;4.03;;;2.27;;
6388;SDS011;3227;42.654;23.360;2024-02-04T09:23:07;4.17;;;2.30;;
6388;SDS011;3227;42.654;23.360;2024-02-04T09:25:34;4.47;;;2.40;;
6388;SDS011;3227;42.654;23.360;2024-02-04T09:28:00;3.43;;;2.17;;
6388;SDS011;3227;42.654;23.360;2024-02-04T09:30:27;3.53;;;2.00;;
6388;SDS011;3227;42.654;23.360;2024-02-04T09:32:55;5.17;;;2.50;;
6388;SDS011;3227;42.654;23.360;2024-02-04T09:35:22;2.83;;;2.03;;
6388;SDS011;3227;42.654;23.360;2024-02-04T09:37:49;5.83;;;2.47;;
6388;SDS011;3227;42.654;23.360;2024-02-04T09:40:16;3.73;;;2.20;;
6388;SDS011;3227;42.654;23.360;2024-02-04T09:42:44;3.83;;;2.10;;
6388;SDS011;3227;42.654;23.360;2024-02-04T09:45:11;4.60;;;2.03;;
6388;SDS011;3227;42.654;23.360;2024-02-04T09:47:40;4.13;;;2.30;;
6388;SDS011;3227;42.654;23.360;2024-02-04T09:50:12;3.57;;;2.20;;
6388;SDS011;3227;42.654;23.360;2024-02-04T09:52:39;3.60;;;2.03;;
6388;SDS011;3227;42.654;23.360;2024-02-04T09:55:10;4.23;;;2.40;;
6388;SDS011;3227;42.654;23.360;2024-02-04T09:57:41;4.90;;;2.50;;
6388;SDS011;3227;42.654;23.360;2024-02-04T10:00:09;4.60;;;2.37;;
6388;SDS011;3227;42.654;23.360;2024-02-04T10:02:37;3.80;;;2.13;;
6388;SDS011;3227;42.654;23.360;2024-02-04T10:05:04;4.50;;;2.20;;
6388;SDS011;3227;42.654;23.360;2024-02-04T10:07:33;4.20;;;2.27;;
6388;SDS011;3227;42.654;23.360;2024-02-04T10:10:00;5.93;;;2.90;;
6388;SDS011;3227;42.654;23.360;2024-02-04T10:12:27;5.03;;;2.30;;
6388;SDS011;3227;42.654;23.360;2024-02-04T10:14:54;4.63;;;2.23;;
6388;SDS011;3227;42.654;23.360;2024-02-04T10:17:21;4.73;;;2.53;;
6388;SDS011;3227;42.654;23.360;2024-02-04T10:19:48;4.67;;;2.27;;
6388;SDS011;3227;42.654;23.360;2024-02-04T10:22:15;3.80;;;2.23;;
6388;SDS011;3227;42.654;23.360;2024-02-04T10:24:44;3.43;;;2.10;;
6388;SDS011;3227;42.654;23.360;2024-02-04T10:27:12;3.03;;;1.80;;
6388;SDS011;3227;42.654;23.360;2024-02-04T10:29:38;4.60;;;2.23;;
6388;SDS011;3227;42.654;23.360;2024-02-04T10:32:05;4.33;;;2.17;;
6388;SDS011;3227;42.654;23.360;2024-02-04T10:34:36;3.37;;;2.20;;
6388;SDS011;3227;42.654;23.360;2024-02-04T10:37:03;4.47;;;2.30;;
6388;SDS011;3227;42.654;23.360;2024-02-04T10:39:30;3.67;;;2.03;;
6388;SDS011;3227;42.654;23.360;2024-02-04T10:42:01;3.20;;;2.03;;
6388;SDS011;3227;42.654;23.360;2024-02-04T10:44:29;4.33;;;2.10;;
6388;SDS011;3227;42.654;23.360;2024-02-04T10:47:01;3.90;;;2.00;;
6388;SDS011;3227;42.654;23.360;2024-02-04T10:49:31;3.33;;;2.00;;
6388;SDS011;3227;42.654;23.360;2024-02-04T10:52:02;3.90;;;2.10;;
6388;SDS011;3227;42.654;23.360;2024-02-04T10:54:32;2.70;;;2.00;;
6388;SDS011;3227;42.654;23.360;2024-02-04T10:57:04;4.60;;;2.30;;
6388;SDS011;3227;42.654;23.360;2024-02-04T10:59:36;3.50;;;2.10;;
6388;SDS011;3227;42.654;23.360;2024-02-04T11:02:03;3.17;;;2.03;;
6388;SDS011;3227;42.654;23.360;2024-02-04T11:04:32;3.33;;;1.90;;
6388;SDS011;3227;42.654;23.360;2024-02-04T11:07:00;3.83;;;2.17;;
6388;SDS011;3227;42.654;23.360;2024-02-04T11:09:27;3.43;;;1.80;;
6388;SDS011;3227;42.654;23.360;2024-02-04T11:11:54;3.47;;;2.00;;
6388;SDS011;3227;42.654;23.360;2024-02-04T11:14:27;3.17;;;2.10;;
6388;SDS011;3227;42.654;23.360;2024-02-04T11:16:59;9.30;;;2.30;;
6388;SDS011;3227;42.654;23.360;2024-02-04T11:19:42;3.30;;;2.00;;
6388;SDS011;3227;42.654;23.360;2024-02-04T11:22:19;3.37;;;2.00;;
6388;SDS011;3227;42.654;23.360;2024-02-04T11:25:11;3.13;;;1.77;;
6388;SDS011;3227;42.654;23.360;2024-02-04T11:27:51;6.67;;;2.10;;
6388;SDS011;3227;42.654;23.360;2024-02-04T11:30:20;4.97;;;2.20;;
6388;SDS011;3227;42.654;23.360;2024-02-04T11:32:47;3.00;;;2.03;;
6388;SDS011;3227;42.654;23.360;2024-02-04T11:35:14;3.30;;;2.03;;
6388;SDS011;3227;42.654;23.360;2024-02-04T11:37:41;4.30;;;2.13;;
6388;SDS011;3227;42.654;23.360;2024-02-04T11:40:13;3.67;;;1.90;;
6388;SDS011;3227;42.654;23.360;2024-02-04T11:42:52;2.80;;;1.77;;
6388;SDS011;3227;42.654;23.360;2024-02-04T11:45:31;4.07;;;2.20;;
6388;SDS011;3227;42.654;23.360;2024-02-04T11:48:01;3.80;;;1.77;;
6388;SDS011;3227;42.654;23.360;2024-02-04T11:50:29;2.92;;;1.90;;
6388;SDS011;3227;42.654;23.360;2024-02-04T11:53:06;2.93;;;1.90;;
6388;SDS011;3227;42.654;23.360;2024-02-04T11:55:34;4.03;;;2.10;;
6388;SDS011;3227;42.654;23.360;2024-02-04T11:58:05;2.75;;;1.80;;
6388;SDS011;3227;42.654;23.360;2024-02-04T12:00:34;2.87;;;2.03;;
6388;SDS011;3227;42.654;23.360;2024-02-04T12:03:01;4.17;;;2.00;;
6388;SDS011;3227;42.654;23.360;2024-02-04T12:05:29;3.87;;;2.13;;
6388;SDS011;3227;42.654;23.360;2024-02-04T12:07:59;4.53;;;2.00;;
6388;SDS011;3227;42.654;23.360;2024-02-04T12:10:26;3.23;;;1.90;;
6388;SDS011;3227;42.654;23.360;2024-02-04T12:12:54;5.20;;;2.27;;
6388;SDS011;3227;42.654;23.360;2024-02-04T12:15:21;4.65;;;2.20;;
6388;SDS011;3227;42.654;23.360;2024-02-04T12:17:49;4.83;;;1.90;;
6388;SDS011;3227;42.654;23.360;2024-02-04T12:20:16;3.10;;;1.90;;
6388;SDS011;3227;42.654;23.360;2024-02-04T12:22:43;3.40;;;2.20;;
6388;SDS011;3227;42.654;23.360;2024-02-04T12:25:10;4.28;;;2.10;;
6388;SDS011;3227;42.654;23.360;2024-02-04T12:27:37;3.63;;;2.20;;
6388;SDS011;3227;42.654;23.360;2024-02-04T12:30:05;3.57;;;2.03;;
6388;SDS011;3227;42.654;23.360;2024-02-04T12:32:32;2.60;;;1.90;;
6388;SDS011;3227;42.654;23.360;2024-02-04T12:35:01;4.03;;;2.30;;
6388;SDS011;3227;42.654;23.360;2024-02-04T12:37:28;4.10;;;2.20;;
6388;SDS011;3227;42.654;23.360;2024-02-04T12:39:55;4.30;;;2.30;;
6388;SDS011;3227;42.654;23.360;2024-02-04T12:42:24;3.90;;;2.30;;
6388;SDS011;3227;42.654;23.360;2024-02-04T12:44:51;2.97;;;2.10;;
6388;SDS011;3227;42.654;23.360;2024-02-04T12:47:20;3.37;;;2.20;;
6388;SDS011;3227;42.654;23.360;2024-02-04T12:49:47;3.60;;;2.20;;
6388;SDS011;3227;42.654;23.360;2024-02-04T12:52:20;3.93;;;2.10;;
6388;SDS011;3227;42.654;23.360;2024-02-04T12:54:48;4.57;;;2.40;;
6388;SDS011;3227;42.654;23.360;2024-02-04T12:57:23;3.00;;;2.00;;
6388;SDS011;3227;42.654;23.360;2024-02-04T12:59:51;3.57;;;2.10;;
6388;SDS011;3227;42.654;23.360;2024-02-04T13:02:18;3.90;;;1.93;;
6388;SDS011;3227;42.654;23.360;2024-02-04T13:04:46;3.53;;;2.13;;
6388;SDS011;3227;42.654;23.360;2024-02-04T13:07:13;3.40;;;2.20;;
6388;SDS011;3227;42.654;23.360;2024-02-04T13:09:43;4.17;;;2.47;;
6388;SDS011;3227;42.654;23.360;2024-02-04T13:12:10;4.87;;;2.00;;
6388;SDS011;3227;42.654;23.360;2024-02-04T13:14:38;5.60;;;2.10;;
6388;SDS011;3227;42.654;23.360;2024-02-04T13:17:05;3.60;;;2.17;;
6388;SDS011;3227;42.654;23.360;2024-02-04T13:19:41;4.43;;;2.30;;
6388;SDS011;3227;42.654;23.360;2024-02-04T13:22:09;3.77;;;2.10;;
6388;SDS011;3227;42.654;23.360;2024-02-04T13:24:37;4.30;;;2.33;;
6388;SDS011;3227;42.654;23.360;2024-02-04T13:27:04;3.63;;;2.20;;
6388;SDS011;3227;42.654;23.360;2024-02-04T13:29:33;3.77;;;2.20;;
6388;SDS011;3227;42.654;23.360;2024-02-04T13:32:00;4.47;;;2.43;;
6388;SDS011;3227;42.654;23.360;2024-02-04T13:34:27;2.97;;;2.00;;
6388;SDS011;3227;42.654;23.360;2024-02-04T13:36:55;4.57;;;2.50;;
6388;SDS011;3227;42.654;23.360;2024-02-04T13:39:22;3.87;;;1.90;;
6388;SDS011;3227;42.654;23.360;2024-02-04T13:41:49;2.83;;;1.90;;
6388;SDS011;3227;42.654;23.360;2024-02-04T13:44:16;2.43;;;1.90;;
6388;SDS011;3227;42.654;23.360;2024-02-04T13:46:42;4.80;;;2.20;;
6388;SDS011;3227;42.654;23.360;2024-02-04T13:49:09;4.07;;;2.03;;
6388;SDS011;3227;42.654;23.360;2024-02-04T13:51:37;4.80;;;2.10;;
6388;SDS011;3227;42.654;23.360;2024-02-04T13:54:05;4.63;;;2.50;;
6388;SDS011;3227;42.654;23.360;2024-02-04T13:56:32;3.90;;;2.00;;
6388;SDS011;3227;42.654;23.360;2024-02-04T13:58:58;3.03;;;2.10;;
6388;SDS011;3227;42.654;23.360;2024-02-04T14:01:25;4.47;;;2.30;;
6388;SDS011;3227;42.654;23.360;2024-02-04T14:03:52;4.73;;;2.67;;
6388;SDS011;3227;42.654;23.360;2024-02-04T14:06:19;4.77;;;2.30;;
6388;SDS011;3227;42.654;23.360;2024-02-04T14:08:45;5.43;;;2.40;;
6388;SDS011;3227;42.654;23.360;2024-02-04T14:11:13;5.00;;;2.50;;
6388;SDS011;3227;42.654;23.360;2024-02-04T14:13:40;5.97;;;2.50;;
6388;SDS011;3227;42.654;23.360;2024-02-04T14:16:07;4.97;;;2.60;;
6388;SDS011;3227;42.654;23.360;2024-02-04T14:18:34;4.38;;;2.15;;
6388;SDS011;3227;42.654;23.360;2024-02-04T14:21:02;4.77;;;2.67;;
6388;SDS011;3227;42.654;23.360;2024-02-04T14:23:30;5.50;;;2.50;;
6388;SDS011;3227;42.654;23.360;2024-02-04T14:25:57;4.90;;;2.67;;
6388;SDS011;3227;42.654;23.360;2024-02-04T14:28:25;4.23;;;2.47;;
6388;SDS011;3227;42.654;23.360;2024-02-04T14:30:52;4.93;;;2.40;;
6388;SDS011;3227;42.654;23.360;2024-02-04T14:33:19;7.33;;;2.80;;
6388;SDS011;3227;42.654;23.360;2024-02-04T14:35:55;3.23;;;2.00;;
6388;SDS011;3227;42.654;23.360;2024-02-04T14:38:22;5.40;;;2.77;;
6388;SDS011;3227;42.654;23.360;2024-02-04T14:40:49;4.93;;;2.43;;
6388;SDS011;3227;42.654;23.360;2024-02-04T14:46:09;6.73;;;2.67;;
6388;SDS011;3227;42.654;23.360;2024-02-04T14:48:36;5.37;;;2.40;;
6388;SDS011;3227;42.654;23.360;2024-02-04T14:51:03;4.97;;;2.30;;
6388;SDS011;3227;42.654;23.360;2024-02-04T14:53:30;4.60;;;2.47;;
6388;SDS011;3227;42.654;23.360;2024-02-04T14:55:56;4.90;;;2.53;;
6388;SDS011;3227;42.654;23.360;2024-02-04T14:58:23;4.80;;;2.60;;
6388;SDS011;3227;42.654;23.360;2024-02-04T15:00:51;7.40;;;3.03;;
6388;SDS011;3227;42.654;23.360;2024-02-04T15:03:18;4.10;;;2.30;;
6388;SDS011;3227;42.654;23.360;2024-02-04T15:05:45;3.87;;;2.20;;
6388;SDS011;3227;42.654;23.360;2024-02-04T15:08:12;4.57;;;2.40;;
6388;SDS011;3227;42.654;23.360;2024-02-04T15:10:38;5.40;;;2.77;;